Time;durP1;ratioP1;P1;durP2;ratioP2;P2;SDS_P1;SDS_P2;PMS_P1;PMS_P2;Temp;Humidity;BMP_temperature;BMP_pressure;BME280_temperature;BME280_humidity;BME280_pressure;Samples;Min_cycle;Max_cycle;Signal;HPM_P1;HPM_P2
2022/12/02 00:02:30;;;;;;;21.70;10.52;;;4.80;99.90;;;4.87;92.22;101225.25;5037674;28;20207;-65
2022/12/02 00:05:28;;;;;;;21.73;9.70;;;4.80;99.90;;;4.87;91.81;101230.44;5035690;28;20215;-65
2022/12/02 00:07:59;;;;;;;22.50;11.07;;;4.80;99.90;;;4.95;91.68;101227.53;5051682;28;20237;-66
2022/12/02 00:10:30;;;;;;;29.10;11.23;;;4.80;99.90;;;4.72;92.76;101228.44;5048529;28;20619;-65
2022/12/02 00:13:19;;;;;;;22.35;9.88;;;4.80;99.90;;;4.78;92.72;101219.59;5053951;28;20700;-65
2022/12/02 00:15:50;;;;;;;26.23;10.20;;;4.70;99.90;;;4.78;92.61;101210.09;5049403;28;20204;-65
2022/12/02 00:18:17;;;;;;;23.42;9.52;;;4.70;99.90;;;4.81;92.46;101211.72;5037537;28;20713;-66
2022/12/02 00:20:45;;;;;;;28.40;10.55;;;4.80;99.90;;;4.93;91.83;101219.84;5035484;28;20209;-65
2022/12/02 00:23:12;;;;;;;23.25;9.85;;;4.80;99.90;;;4.89;92.25;101214.84;5035034;28;20681;-65
2022/12/02 00:25:44;;;;;;;30.20;11.27;;;4.80;99.90;;;4.88;92.34;101206.25;5045667;28;20205;-65
2022/12/02 00:28:11;;;;;;;26.95;10.23;;;4.80;99.90;;;5.05;91.58;101214.16;5031976;28;20603;-65
2022/12/02 00:30:39;;;;;;;19.95;9.02;;;4.90;99.90;;;4.97;92.01;101200.72;5039326;28;20201;-65
2022/12/02 00:33:07;;;;;;;24.45;10.95;;;4.90;99.90;;;5.12;90.70;101201.84;5033069;28;20292;-66
2022/12/02 00:35:34;;;;;;;15.30;7.45;;;5.00;99.90;;;5.24;90.51;101209.09;5049075;28;20296;-64
2022/12/02 00:38:01;;;;;;;24.08;9.90;;;5.00;99.90;;;5.28;90.24;101208.91;5066269;28;20240;-64
2022/12/02 00:40:28;;;;;;;26.35;9.30;;;5.10;99.90;;;5.17;90.75;101211.13;5051536;28;20641;-64
2022/12/02 00:46:30;;;;;;;24.65;10.18;;;5.10;99.90;;;5.02;91.84;101197.94;5053476;28;20303;-64
2022/12/02 00:48:33;;;;;;;19.00;8.85;;;5.00;99.90;;;4.85;93.27;101196.03;5026052;28;20783;-65
2022/12/02 00:51:01;;;;;;;20.30;8.45;;;5.00;99.90;;;5.13;91.65;101200.94;5048398;28;20212;-65
2022/12/02 00:53:28;;;;;;;19.65;8.38;;;5.00;99.90;;;5.01;92.38;101193.66;5035217;28;20205;-65
2022/12/02 00:55:55;;;;;;;24.77;10.25;;;5.00;99.90;;;5.26;91.28;101189.19;5054283;28;20209;-65
2022/12/02 00:58:22;;;;;;;27.42;11.13;;;5.00;99.90;;;5.35;90.81;101199.16;5052253;28;20236;-65
2022/12/02 01:00:49;;;;;;;18.80;8.30;;;5.10;99.90;;;5.32;90.43;101187.16;5041452;28;20198;-64
2022/12/02 01:03:16;;;;;;;15.40;8.30;;;5.10;99.90;;;5.33;90.79;101198.38;5035811;28;20255;-65
2022/12/02 01:05:43;;;;;;;20.10;9.05;;;5.20;99.90;;;5.41;90.29;101196.28;5051175;28;20572;-65
2022/12/02 01:08:09;;;;;;;11.63;5.47;;;5.20;99.90;;;5.48;89.51;101197.72;5032903;28;20234;-64
2022/12/02 01:10:36;;;;;;;28.23;10.98;;;5.30;99.90;;;5.28;90.27;101182.22;5051998;28;20196;-63
2022/12/02 01:13:03;;;;;;;26.30;11.95;;;5.20;99.90;;;5.40;90.18;101186.88;5045391;28;20257;-65
2022/12/02 01:15:30;;;;;;;25.60;10.02;;;5.30;99.90;;;5.32;90.16;101186.34;5044275;28;20208;-65
2022/12/02 01:17:59;;;;;;;30.92;11.85;;;5.20;99.90;;;5.38;89.81;101183.50;5036080;28;20240;-65
2022/12/02 01:20:26;;;;;;;26.35;9.85;;;5.20;99.90;;;5.32;90.17;101181.19;5033492;28;20509;-65
2022/12/02 01:22:53;;;;;;;27.13;10.15;;;5.20;99.90;;;5.24;90.21;101178.03;5033437;28;20220;-64
2022/12/02 01:25:20;;;;;;;21.55;9.05;;;5.20;99.90;;;5.24;90.54;101173.72;5051210;28;20205;-65
2022/12/02 01:27:47;;;;;;;17.05;8.25;;;5.20;99.90;;;5.30;90.23;101172.63;5053885;28;20233;-65
2022/12/02 01:30:14;;;;;;;17.20;7.07;;;5.20;99.90;;;5.36;89.91;101172.38;5036929;28;20484;-64
2022/12/02 01:32:41;;;;;;;12.35;5.63;;;5.20;99.90;;;5.36;89.70;101177.56;5037559;28;20201;-64
2022/12/02 01:35:08;;;;;;;26.08;11.15;;;5.20;99.90;;;5.41;89.59;101173.00;5040180;28;20201;-65
2022/12/02 01:37:35;;;;;;;25.83;9.73;;;5.20;99.90;;;5.33;90.18;101169.91;5026148;28;20225;-65
2022/12/02 01:40:04;;;;;;;27.70;12.77;;;5.20;99.90;;;5.20;90.40;101177.34;5046078;28;20291;-65
2022/12/02 01:42:31;;;;;;;31.85;12.55;;;5.20;99.90;;;5.15;90.77;101168.94;5043744;28;20288;-64
2022/12/02 01:44:58;;;;;;;16.67;7.85;;;5.20;99.90;;;5.24;90.43;101170.28;5059184;28;20293;-65
2022/12/02 01:47:26;;;;;;;30.73;11.85;;;5.20;99.90;;;5.22;90.04;101167.75;5049365;28;20244;-64
2022/12/02 01:49:53;;;;;;;26.55;11.65;;;5.20;99.90;;;5.08;90.89;101172.69;5047981;28;20645;-65
2022/12/02 01:52:21;;;;;;;24.15;10.45;;;5.10;99.90;;;5.25;90.19;101179.75;5040936;28;20201;-65
2022/12/02 01:54:50;;;;;;;25.20;11.50;;;5.10;99.90;;;5.38;89.15;101170.56;5052510;28;20331;-65
2022/12/02 01:57:25;;;;;;;30.05;11.70;;;5.10;99.90;;;5.11;90.01;101175.13;5045304;28;20244;-65
2022/12/02 01:59:52;;;;;;;16.08;7.32;;;5.20;99.90;;;5.25;89.77;101170.25;5048587;28;20207;-65
2022/12/02 02:02:37;;;;;;;31.17;10.05;;;5.10;99.90;;;5.09;90.84;101168.34;5055439;28;20204;-66
2022/12/02 02:05:16;;;;;;;27.75;12.25;;;5.10;99.90;;;5.15;90.69;101170.69;5053429;28;20213;-65
2022/12/02 02:07:46;;;;;;;29.67;13.55;;;5.10;99.90;;;5.25;90.19;101171.97;5052935;28;20317;-65
2022/12/02 02:10:13;;;;;;;19.90;8.90;;;5.10;99.90;;;5.36;89.52;101173.22;5052951;28;20208;-65
2022/12/02 02:12:40;;;;;;;24.17;10.40;;;5.10;99.90;;;5.13;89.81;101162.97;5036625;28;20617;-65
2022/12/02 02:15:10;;;;;;;23.55;11.07;;;5.10;99.90;;;5.01;91.20;101162.63;5047611;28;20208;-65
2022/12/02 02:17:37;;;;;;;19.90;7.47;;;5.10;99.90;;;5.16;90.41;101169.75;5021952;28;20225;-65
2022/12/02 02:20:09;;;;;;;17.88;8.18;;;5.00;99.90;;;5.14;90.33;101167.25;5051287;28;20220;-65
2022/12/02 02:23:03;;;;;;;26.13;8.73;;;5.00;99.90;;;5.21;89.98;101165.25;5050873;28;20590;-65
2022/12/02 02:25:40;;;;;;;29.50;12.50;;;5.10;99.90;;;5.27;89.80;101167.59;5052634;28;20208;-65
2022/12/02 02:28:08;;;;;;;23.92;10.23;;;5.10;99.90;;;5.18;90.45;101162.78;5046290;28;20291;-65
2022/12/02 02:30:36;;;;;;;21.08;8.20;;;5.10;99.90;;;5.28;89.91;101161.50;5040951;28;20211;-65
2022/12/02 02:33:07;;;;;;;23.77;10.20;;;5.20;99.90;;;5.25;90.34;101161.63;5049397;28;20382;-66
2022/12/02 02:35:37;;;;;;;19.38;7.60;;;5.20;99.90;;;5.22;90.40;101164.34;5044538;28;20196;-64
2022/12/02 02:38:07;;;;;;;23.77;9.45;;;5.20;99.90;;;5.19;89.82;101152.38;5043845;28;20224;-65
2022/12/02 02:40:35;;;;;;;20.90;9.88;;;5.10;99.90;;;5.23;89.94;101156.53;5050672;28;20212;-66
2022/12/02 02:43:03;;;;;;;18.88;7.93;;;5.10;99.90;;;5.28;89.84;101157.16;5037549;28;20202;-65
2022/12/02 02:45:34;;;;;;;25.80;10.65;;;5.20;99.90;;;5.21;89.58;101154.91;5047001;28;20226;-65
2022/12/02 02:48:07;;;;;;;21.63;9.35;;;5.20;99.90;;;5.35;89.22;101149.97;5031709;28;20336;-65
2022/12/02 02:50:36;;;;;;;25.15;11.07;;;5.20;99.90;;;5.30;89.72;101150.16;5031512;28;20206;-65
2022/12/02 02:53:04;;;;;;;8.23;3.88;;;5.20;99.90;;;5.27;89.86;101145.13;5031198;28;20211;-66
2022/12/02 02:55:33;;;;;;;25.10;10.27;;;5.20;99.90;;;5.16;90.55;101143.91;5032619;28;20209;-65
2022/12/02 02:58:19;;;;;;;25.08;9.95;;;5.20;99.90;;;5.25;89.93;101135.75;5032058;28;20233;-63
2022/12/02 03:00:54;;;;;;;25.65;10.25;;;5.20;99.90;;;5.19;90.32;101147.22;5050251;28;20912;-65
2022/12/02 03:03:25;;;;;;;18.83;8.65;;;5.20;99.90;;;5.14;90.83;101138.78;5044710;28;20200;-65
2022/12/02 03:05:53;;;;;;;18.65;7.30;;;5.10;99.90;;;5.35;89.76;101142.22;5064580;28;20673;-65
2022/12/02 03:08:22;;;;;;;26.50;12.10;;;5.20;99.90;;;5.13;89.99;101131.91;5027499;28;20221;-65
2022/12/02 03:10:53;;;;;;;23.80;11.90;;;5.20;99.90;;;5.23;89.75;101135.84;5041759;28;20255;-64
2022/12/02 03:13:20;;;;;;;25.90;11.52;;;5.20;99.90;;;5.22;90.04;101130.69;5044479;28;20201;-65
2022/12/02 03:15:47;;;;;;;21.73;9.15;;;5.20;99.90;;;5.21;89.84;101129.03;5058689;28;20196;-65
2022/12/02 03:18:15;;;;;;;31.45;10.52;;;5.20;99.90;;;5.22;90.48;101128.13;5030579;28;20269;-66
2022/12/02 03:20:41;;;;;;;28.35;11.40;;;5.20;99.90;;;5.19;90.29;101134.28;5051146;28;20197;-65
2022/12/02 03:23:08;;;;;;;22.58;9.07;;;5.10;99.90;;;5.02;91.72;101125.53;5066026;28;20211;-65
2022/12/02 03:25:36;;;;;;;13.90;6.82;;;5.00;99.90;;;5.17;91.19;101125.75;5034067;28;20630;-65
2022/12/02 03:28:03;;;;;;;20.00;8.73;;;5.10;99.90;;;5.16;90.33;101123.19;5035447;28;20250;-65
2022/12/02 03:30:30;;;;;;;27.75;12.80;;;5.10;99.90;;;5.02;91.05;101121.22;5028040;28;20213;-65
2022/12/02 03:32:57;;;;;;;20.52;9.30;;;5.10;99.90;;;5.13;90.86;101113.81;5043735;28;20193;-65
2022/12/02 03:35:25;;;;;;;12.63;5.70;;;5.10;99.90;;;5.13;90.72;101115.59;5027852;28;20307;-65
2022/12/02 03:37:52;;;;;;;24.35;9.52;;;5.00;99.90;;;5.24;90.31;101111.63;5050259;28;20713;-65
2022/12/02 03:40:19;;;;;;;25.13;10.00;;;5.10;99.90;;;5.28;90.11;101112.34;5067880;28;20512;-65
2022/12/02 03:42:46;;;;;;;22.40;9.68;;;5.10;99.90;;;5.23;89.99;101114.28;5056606;28;20647;-65
2022/12/02 03:45:14;;;;;;;21.25;8.27;;;5.20;99.90;;;4.98;91.77;101108.47;5032928;28;20209;-66
2022/12/02 03:47:41;;;;;;;26.83;12.38;;;5.10;99.90;;;5.07;91.37;101103.72;5034008;28;20645;-65
2022/12/02 03:50:09;;;;;;;23.08;9.82;;;5.10;99.90;;;5.13;90.72;101097.47;5025807;28;20201;-65
2022/12/02 03:52:36;;;;;;;22.92;10.60;;;5.10;99.90;;;5.02;91.44;101097.09;5013103;28;20650;-65
2022/12/02 03:55:04;;;;;;;29.08;11.82;;;5.10;99.90;;;5.14;90.07;101097.41;5047092;28;20204;-65
2022/12/02 03:57:32;;;;;;;22.02;11.00;;;5.00;99.90;;;5.03;90.82;101102.19;5048872;28;20704;-65
2022/12/02 04:00:00;;;;;;;12.80;6.68;;;5.10;99.90;;;5.11;90.86;101101.88;5040900;28;20214;-65
2022/12/02 04:02:27;;;;;;;24.98;10.60;;;5.00;99.90;;;5.04;90.94;101103.88;5026877;28;20691;-65
2022/12/02 04:04:54;;;;;;;26.23;12.13;;;5.00;99.90;;;5.06;90.89;101086.56;5028982;28;20258;-66
2022/12/02 04:07:21;;;;;;;18.75;7.90;;;5.00;99.90;;;5.09;91.04;101095.94;5030912;28;20648;-65
2022/12/02 04:09:48;;;;;;;28.10;10.90;;;5.00;99.90;;;5.02;91.02;101094.50;5046636;28;20250;-65
2022/12/02 04:12:14;;;;;;;25.35;9.75;;;5.00;99.90;;;5.02;91.11;101082.41;5050737;28;20207;-65
2022/12/02 04:14:41;;;;;;;23.92;7.60;;;5.00;99.90;;;5.03;91.18;101093.56;5049916;28;20263;-65
2022/12/02 04:17:09;;;;;;;23.40;7.85;;;5.00;99.90;;;4.98;91.58;101082.59;5036443;28;20201;-65
2022/12/02 04:19:36;;;;;;;21.63;9.63;;;5.00;99.90;;;5.02;90.95;101089.31;5049522;28;20349;-65
2022/12/02 04:22:03;;;;;;;27.65;10.93;;;5.00;99.90;;;4.99;91.20;101082.53;5038547;28;20201;-65
2022/12/02 04:24:30;;;;;;;9.98;4.78;;;5.00;99.90;;;5.03;91.15;101078.91;5050113;28;20245;-66
2022/12/02 04:26:57;;;;;;;20.95;8.32;;;5.00;99.90;;;5.19;90.21;101081.69;5027743;28;20211;-64
2022/12/02 04:29:24;;;;;;;28.08;10.68;;;5.10;99.90;;;5.23;90.05;101076.31;5049880;28;20729;-65
2022/12/02 04:31:51;;;;;;;21.00;8.32;;;5.10;99.90;;;5.23;90.45;101073.75;5035316;28;20213;-65
2022/12/02 04:34:18;;;;;;;19.75;8.73;;;5.10;99.90;;;5.18;90.39;101062.75;5025304;28;20323;-65
2022/12/02 04:36:44;;;;;;;19.55;8.80;;;5.10;99.90;;;5.01;91.46;101077.28;5048234;28;20196;-65
2022/12/02 04:39:11;;;;;;;9.90;4.38;;;5.10;99.90;;;5.19;90.61;101072.19;5049421;28;20278;-65
2022/12/02 04:41:38;;;;;;;21.58;10.18;;;5.10;99.90;;;5.15;90.34;101074.97;5058718;28;20204;-65
2022/12/02 04:44:05;;;;;;;26.17;10.80;;;5.00;99.90;;;5.05;91.27;101078.81;5030641;28;20193;-65
2022/12/02 04:46:32;;;;;;;24.70;11.80;;;5.10;99.90;;;5.16;90.40;101069.72;5051030;28;21018;-65
2022/12/02 04:48:59;;;;;;;26.80;10.25;;;5.10;99.90;;;5.10;90.62;101066.56;5030842;28;20241;-65
2022/12/02 04:51:26;;;;;;;24.17;10.60;;;5.10;99.90;;;5.13;90.30;101076.78;5059832;28;20210;-65
2022/12/02 04:53:52;;;;;;;17.83;7.85;;;5.10;99.90;;;5.26;90.27;101065.81;5063618;28;20625;-66
2022/12/02 04:56:19;;;;;;;25.85;10.75;;;5.10;99.90;;;5.14;90.96;101063.78;5052762;28;20205;-65
2022/12/02 04:58:46;;;;;;;24.95;9.43;;;5.10;99.90;;;5.08;90.59;101063.19;5049730;28;20328;-65
2022/12/02 05:01:13;;;;;;;27.83;10.82;;;5.10;99.90;;;5.15;90.48;101062.03;5033418;28;20212;-64
2022/12/02 05:03:40;;;;;;;25.98;12.52;;;5.10;99.90;;;5.10;90.13;101057.06;5047496;28;20567;-65
2022/12/02 05:06:07;;;;;;;19.77;9.13;;;5.10;99.90;;;5.14;90.01;101063.78;5032447;28;20224;-65
2022/12/02 05:08:34;;;;;;;27.45;11.13;;;5.00;99.90;;;4.96;91.36;101061.13;5067241;28;20278;-65
2022/12/02 05:11:01;;;;;;;25.73;11.15;;;5.00;99.90;;;4.95;91.40;101057.69;5052809;28;20204;-65
2022/12/02 05:13:27;;;;;;;27.45;12.05;;;5.00;99.90;;;5.01;91.18;101059.19;5052835;28;20655;-65
2022/12/02 05:15:54;;;;;;;25.65;10.73;;;5.00;99.90;;;5.00;91.38;101055.78;5047799;28;20196;-63
2022/12/02 05:18:21;;;;;;;22.20;9.30;;;5.00;99.90;;;5.05;90.90;101048.63;5038527;28;20238;-65
2022/12/02 05:20:48;;;;;;;29.65;12.45;;;5.00;99.90;;;5.13;90.67;101053.50;5047176;28;20198;-65
2022/12/02 05:23:15;;;;;;;18.98;8.43;;;5.00;99.90;;;5.15;90.40;101059.44;5043958;28;20201;-65
2022/12/02 05:25:42;;;;;;;28.27;11.23;;;5.10;99.90;;;5.02;91.23;101046.22;5047666;28;20207;-65
2022/12/02 05:28:09;;;;;;;23.55;10.30;;;5.00;99.90;;;5.12;90.15;101054.41;5040187;28;20237;-65
2022/12/02 05:30:36;;;;;;;22.27;11.77;;;5.00;99.90;;;5.00;90.99;101042.84;5029356;28;20205;-65
2022/12/02 05:33:03;;;;;;;23.60;10.05;;;5.00;99.90;;;5.09;90.51;101046.78;5035193;28;20200;-65
2022/12/02 05:35:29;;;;;;;27.35;11.30;;;5.10;99.90;;;5.05;90.54;101046.06;5013355;28;20189;-65
2022/12/02 05:37:56;;;;;;;26.55;11.40;;;5.00;99.90;;;5.07;90.52;101040.84;5059717;28;20482;-65
2022/12/02 05:40:30;;;;;;;27.20;11.68;;;5.10;99.90;;;5.00;90.57;101044.59;5066442;28;20254;-65
2022/12/02 05:43:19;;;;;;;25.23;10.10;;;5.00;99.90;;;4.95;90.92;101047.34;5044274;28;20209;-65
2022/12/02 05:45:46;;;;;;;24.13;10.05;;;5.00;99.90;;;4.81;91.65;101048.84;5048895;28;20207;-65
2022/12/02 05:48:17;;;;;;;29.15;13.10;;;4.90;99.90;;;5.02;91.03;101053.97;5046157;28;20705;-65
2022/12/02 05:50:45;;;;;;;22.10;8.70;;;5.00;99.90;;;5.03;90.39;101047.03;5030733;28;20207;-65
2022/12/02 05:53:26;;;;;;;24.20;11.20;;;5.00;99.90;;;5.03;90.91;101037.53;5060714;28;20206;-65
2022/12/02 05:55:55;;;;;;;25.60;9.68;;;5.00;99.90;;;5.13;90.21;101038.00;5052579;28;20215;-65
2022/12/02 05:58:22;;;;;;;25.17;9.10;;;5.00;99.90;;;5.04;90.48;101038.38;5051630;28;20236;-66
2022/12/02 06:00:55;;;;;;;23.17;12.00;;;5.00;99.90;;;4.96;91.27;101041.28;5034497;28;20205;-65
2022/12/02 06:03:23;;;;;;;26.33;11.35;;;5.00;99.90;;;4.89;91.39;101037.28;5030666;28;20583;-65
2022/12/02 06:05:52;;;;;;;27.90;12.55;;;4.90;99.90;;;4.98;90.70;101043.81;5029925;28;20232;-65
2022/12/02 06:08:29;;;;;;;26.33;11.32;;;5.00;99.90;;;4.95;90.87;101042.19;5044039;28;20627;-65
2022/12/02 06:11:15;;;;;;;13.90;7.10;;;4.90;99.90;;;5.03;90.26;101029.75;5044302;28;20197;-65
2022/12/02 06:13:42;;;;;;;25.65;9.68;;;5.00;99.90;;;4.94;90.59;101045.66;5067277;28;20191;-65
2022/12/02 06:16:22;;;;;;;26.67;11.75;;;4.90;99.90;;;4.89;90.94;101044.19;5051951;28;20205;-64
2022/12/02 06:18:50;;;;;;;28.30;10.45;;;4.90;99.90;;;4.90;91.01;101043.31;5045714;28;20263;-65
2022/12/02 06:21:19;;;;;;;29.08;12.05;;;4.90;99.90;;;4.89;91.10;101041.59;5051059;28;20197;-65
2022/12/02 06:23:49;;;;;;;29.00;12.45;;;4.90;99.90;;;5.02;90.34;101048.78;5032514;28;20209;-65
2022/12/02 06:26:19;;;;;;;21.58;8.90;;;5.00;99.90;;;5.07;90.05;101039.06;5042875;28;20201;-66
2022/12/02 06:28:50;;;;;;;20.20;6.18;;;5.00;99.90;;;5.05;90.23;101034.88;5033346;28;20697;-65
2022/12/02 06:31:27;;;;;;;19.20;8.45;;;5.00;99.90;;;5.15;89.52;101037.03;5038896;28;20197;-64
2022/12/02 06:33:58;;;;;;;30.67;11.43;;;5.00;99.90;;;5.10;89.79;101049.31;5034137;28;20570;-65
2022/12/02 06:36:30;;;;;;;27.85;12.63;;;5.00;99.90;;;5.00;90.22;101040.25;5042324;28;20251;-66
2022/12/02 06:39:18;;;;;;;23.33;10.75;;;5.00;99.90;;;4.87;91.08;101041.69;5029612;28;20236;-65
2022/12/02 06:41:44;;;;;;;22.20;11.05;;;5.00;99.90;;;5.10;90.00;101035.53;5035032;28;20199;-66
2022/12/02 06:47:35;;;;;;;19.48;8.52;;;5.00;99.90;;;5.03;89.98;101042.69;5037509;28;20203;-65
2022/12/02 06:50:04;;;;;;;21.42;10.35;;;5.00;99.90;;;5.06;89.26;101036.56;5030573;28;20204;-65
2022/12/02 06:52:41;;;;;;;25.60;9.13;;;5.00;99.90;;;5.03;89.88;101040.13;5046085;28;20196;-66
2022/12/02 06:55:32;;;;;;;26.35;8.88;;;5.00;99.90;;;5.08;89.38;101033.00;5030263;28;20203;-65
2022/12/02 06:58:22;;;;;;;16.98;7.95;;;5.00;99.90;;;5.11;89.43;101043.19;5042058;28;20232;-61
2022/12/02 07:00:49;;;;;;;26.20;10.85;;;5.00;99.90;;;5.10;89.69;101040.69;5032286;28;20201;-64
2022/12/02 07:03:30;;;;;;;21.95;8.90;;;5.00;99.90;;;5.16;88.85;101035.25;5035156;28;20213;-63
2022/12/02 07:06:12;;;;;;;21.17;10.05;;;5.10;99.90;;;5.32;89.04;101050.03;5047372;28;20202;-64
2022/12/02 07:08:39;;;;;;;24.05;9.82;;;5.10;99.90;;;5.07;89.78;101033.91;5049480;28;20254;-64
2022/12/02 07:11:50;;;;;;;22.67;10.25;;;5.10;99.90;;;5.17;89.08;101042.13;5065498;28;20201;-64
2022/12/02 07:14:38;;;;;;;24.58;10.95;;;5.10;99.90;;;5.15;89.14;101041.34;4987800;28;20214;-64
2022/12/02 07:17:34;;;;;;;18.35;7.35;;;5.10;99.90;;;4.98;90.17;101047.25;5048798;28;20479;-64
2022/12/02 07:20:30;;;;;;;28.35;11.73;;;5.00;99.90;;;5.17;89.24;101042.97;5060052;28;20188;-63
2022/12/02 07:23:04;;;;;;;26.05;10.52;;;5.10;99.90;;;5.08;89.16;101038.19;5029042;28;20212;-64
2022/12/02 07:25:53;;;;;;;18.88;8.95;;;5.10;99.90;;;5.03;89.92;101039.25;5032075;28;20380;-65
2022/12/02 07:28:36;;;;;;;21.73;9.90;;;5.00;99.90;;;5.03;89.49;101053.03;5037578;28;20788;-64
2022/12/02 07:31:26;;;;;;;26.13;11.13;;;5.00;99.90;;;4.94;90.91;101047.44;5029219;28;20326;-64
2022/12/02 07:33:53;;;;;;;22.27;10.82;;;5.00;99.90;;;5.05;89.98;101047.78;5029393;28;20669;-64
2022/12/02 07:36:21;;;;;;;19.70;7.50;;;5.00;99.90;;;5.29;88.72;101042.44;5027282;28;20196;-64
2022/12/02 07:38:48;;;;;;;13.80;7.05;;;5.10;99.90;;;5.14;89.18;101037.91;5029231;28;20228;-64
2022/12/02 07:41:33;;;;;;;21.85;9.70;;;5.10;99.90;;;5.05;89.97;101048.63;5036573;28;20212;-65
2022/12/02 07:44:04;;;;;;;19.17;7.40;;;5.00;99.90;;;5.01;90.19;101041.06;5064768;28;20265;-65
2022/12/02 07:46:31;;;;;;;26.15;11.55;;;5.00;99.90;;;5.17;89.76;101036.94;5031171;28;20692;-65
2022/12/02 07:48:58;;;;;;;22.67;10.15;;;5.10;99.90;;;5.24;89.12;101038.34;5036768;28;20280;-65
2022/12/02 07:51:25;;;;;;;24.33;11.10;;;5.10;99.90;;;5.07;89.90;101033.09;5043942;28;20193;-65
2022/12/02 07:53:52;;;;;;;22.42;9.68;;;5.10;99.90;;;5.07;89.95;101030.50;5030359;28;20193;-64
2022/12/02 07:56:19;;;;;;;21.10;9.38;;;5.10;99.90;;;4.97;90.75;101034.34;5033176;28;20578;-64
2022/12/02 07:58:46;;;;;;;14.15;6.25;;;5.00;99.90;;;5.18;89.70;101030.84;5049281;28;20236;-64
2022/12/02 08:01:33;;;;;;;21.85;10.05;;;5.00;99.90;;;5.09;89.58;101032.09;5021932;28;20204;-64
2022/12/02 08:04:00;;;;;;;22.73;10.60;;;5.10;99.90;;;5.15;89.60;101031.00;5030484;28;20255;-65
2022/12/02 08:06:27;;;;;;;16.15;6.38;;;5.10;99.90;;;5.32;88.53;101031.91;5022050;28;20209;-65
2022/12/02 08:08:54;;;;;;;19.23;7.47;;;5.10;99.90;;;5.24;88.88;101028.84;5029287;28;20236;-63
2022/12/02 08:11:21;;;;;;;16.67;6.72;;;5.10;99.90;;;5.28;88.49;101034.75;5031686;28;20203;-64
2022/12/02 08:13:48;;;;;;;19.30;8.35;;;5.10;99.90;;;5.26;89.18;101032.19;5065524;28;20253;-64
2022/12/02 08:16:15;;;;;;;19.77;9.50;;;5.10;99.90;;;5.26;88.86;101029.59;5020531;28;20205;-64
2022/12/02 08:18:42;;;;;;;18.88;7.78;;;5.10;99.90;;;5.32;88.27;101029.34;5064713;28;20224;-63
2022/12/02 08:21:09;;;;;;;27.45;10.40;;;5.20;99.90;;;5.30;88.31;101025.97;5031592;28;20216;-64
2022/12/02 08:23:36;;;;;;;25.67;9.50;;;5.20;99.90;;;5.22;88.86;101029.81;5039461;28;20212;-63
2022/12/02 08:26:03;;;;;;;21.55;9.32;;;5.20;99.90;;;5.24;89.24;101030.56;5050397;28;20207;-64
2022/12/02 08:28:30;;;;;;;13.48;5.85;;;5.20;99.90;;;5.39;88.03;101022.16;5061529;22;20233;-65
2022/12/02 08:30:57;;;;;;;21.27;9.30;;;5.20;99.90;;;5.50;87.85;101025.94;5045258;28;20285;-64
2022/12/02 08:33:24;;;;;;;22.23;9.65;;;5.30;99.90;;;5.41;88.64;101026.34;5044979;28;20229;-65
2022/12/02 08:35:51;;;;;;;24.13;9.73;;;5.30;99.90;;;5.21;89.06;101028.13;5046769;28;20260;-65
2022/12/02 08:38:18;;;;;;;20.15;9.32;;;5.20;99.90;;;5.38;88.39;101021.31;5052539;28;20227;-65
2022/12/02 08:40:45;;;;;;;18.95;8.63;;;5.20;99.90;;;5.29;88.21;101026.06;5051462;28;20198;-65
2022/12/02 08:43:12;;;;;;;20.08;9.48;;;5.30;99.90;;;5.32;88.85;101023.34;5052221;28;20197;-65
2022/12/02 08:45:39;;;;;;;22.30;8.38;;;5.20;99.90;;;5.34;88.29;101018.94;5051489;28;20270;-67
2022/12/02 08:48:06;;;;;;;23.80;8.35;;;5.30;99.90;;;5.20;89.44;101016.94;5061558;28;20272;-65
2022/12/02 08:50:33;;;;;;;22.65;9.02;;;5.20;99.90;;;5.26;89.09;101021.03;5064875;28;20576;-65
2022/12/02 08:53:00;;;;;;;21.05;9.15;;;5.20;99.90;;;5.29;89.00;101013.97;5058863;28;20195;-64
2022/12/02 08:55:27;;;;;;;20.38;9.23;;;5.20;99.90;;;5.33;88.35;101012.06;5054512;28;20208;-65
2022/12/02 08:57:54;;;;;;;25.95;11.30;;;5.20;99.90;;;5.37;88.27;101016.19;5053447;28;20244;-65
2022/12/02 09:00:21;;;;;;;22.95;9.93;;;5.30;99.90;;;5.35;88.30;101020.59;5045244;28;20307;-66
2022/12/02 09:02:48;;;;;;;19.80;10.05;;;5.30;99.90;;;5.24;88.75;101013.31;5053038;28;20217;-66
2022/12/02 09:05:16;;;;;;;18.77;9.45;;;5.30;99.90;;;5.22;89.48;101009.09;5050731;28;20220;-65
2022/12/02 09:07:43;;;;;;;22.20;10.40;;;5.20;99.90;;;5.25;89.27;101016.75;5067156;28;20730;-65
2022/12/02 09:10:12;;;;;;;19.58;10.38;;;5.20;99.90;;;5.31;89.76;101021.66;5060322;28;20256;-66
2022/12/02 09:12:39;;;;;;;22.58;8.98;;;5.20;99.90;;;5.47;88.67;101012.31;5053377;28;20735;-65
2022/12/02 09:15:06;;;;;;;26.85;10.32;;;5.30;99.90;;;5.53;88.50;101013.78;5052228;28;20208;-65
2022/12/02 09:17:33;;;;;;;20.40;8.35;;;5.30;99.90;;;5.48;88.47;101011.38;5057215;28;20661;-65
2022/12/02 09:20:02;;;;;;;19.90;8.95;;;5.30;99.90;;;5.38;89.93;101020.47;5069980;28;20204;-63
2022/12/02 09:22:29;;;;;;;24.23;10.15;;;5.30;99.90;;;5.19;91.05;101015.28;5059353;28;20257;-65
2022/12/02 09:24:56;;;;;;;25.25;9.82;;;5.20;99.90;;;5.36;90.64;101017.97;5069505;28;20899;-66
2022/12/02 09:27:22;;;;;;;16.50;7.47;;;5.20;99.90;;;5.52;89.60;101012.94;5067360;28;20210;-65
2022/12/02 09:29:49;;;;;;;27.27;9.68;;;5.30;99.90;;;5.19;91.97;101011.84;5069632;28;20231;-65
2022/12/02 09:32:16;;;;;;;26.88;10.60;;;5.20;99.90;;;5.37;91.11;101016.19;5059268;28;20694;-66
2022/12/02 09:34:43;;;;;;;20.90;9.05;;;5.20;99.90;;;5.30;91.88;101009.63;5043342;28;20207;-65
2022/12/02 09:37:10;;;;;;;22.95;10.55;;;5.30;99.90;;;5.35;91.71;101018.88;5050294;28;20233;-65
2022/12/02 09:39:37;;;;;;;26.23;10.02;;;5.30;99.90;;;5.37;92.07;101022.22;5062701;28;20315;-66
2022/12/02 09:42:10;;;;;;;21.67;10.00;;;5.30;99.90;;;5.32;92.84;101018.16;5052642;28;20205;-65
2022/12/02 09:44:39;;;;;;;11.15;6.25;;;5.30;99.90;;;5.54;91.18;101008.50;5053299;28;20246;-65
2022/12/02 09:47:06;;;;;;;12.15;6.00;;;5.30;99.90;;;5.54;91.41;101021.47;5052627;28;20212;-64
2022/12/02 09:49:34;;;;;;;8.00;4.05;;;5.30;99.90;;;5.67;90.55;101011.38;5048805;28;20236;-64
2022/12/02 09:52:04;;;;;;;20.50;9.50;;;5.40;99.90;;;5.53;91.34;101017.22;5048170;28;20579;-62
2022/12/02 09:54:31;;;;;;;8.68;5.10;;;5.40;99.90;;;5.54;92.55;101013.69;5052123;28;20197;-65
2022/12/02 09:56:58;;;;;;;21.65;9.75;;;5.40;99.90;;;5.43;92.37;101013.38;5051634;28;20554;-65
2022/12/02 09:59:26;;;;;;;18.13;9.05;;;5.40;99.90;;;5.56;91.82;101009.28;5051978;28;20228;-65
2022/12/02 10:01:58;;;;;;;12.07;6.50;;;5.40;99.90;;;5.49;91.08;101010.50;5058089;28;20206;-65
2022/12/02 10:04:25;;;;;;;18.73;9.65;;;5.40;99.90;;;5.38;92.05;101013.56;5064873;28;20208;-67
2022/12/02 10:06:52;;;;;;;18.70;8.40;;;5.40;99.90;;;5.46;91.55;101000.28;5065998;28;20505;-64
2022/12/02 10:09:27;;;;;;;19.13;8.02;;;5.30;99.90;;;5.61;91.00;101009.09;5051740;28;20332;-65
2022/12/02 10:11:54;;;;;;;17.15;6.90;;;5.40;99.90;;;5.49;92.56;101002.72;5050568;28;20227;-65
2022/12/02 10:14:21;;;;;;;16.23;7.88;;;5.40;99.90;;;5.40;93.37;101009.16;5050367;28;20209;-64
2022/12/02 10:16:51;;;;;;;7.28;4.32;;;5.40;99.90;;;5.58;92.01;101004.88;5059148;28;20287;-65
2022/12/02 10:19:20;;;;;;;18.95;9.95;;;5.40;99.90;;;5.53;92.04;100998.25;5066662;28;20256;-64
2022/12/02 10:21:47;;;;;;;15.90;8.85;;;5.40;99.90;;;5.49;92.50;100998.38;5055529;28;20208;-65
2022/12/02 10:24:38;;;;;;;19.13;8.18;;;5.30;99.90;;;5.49;92.94;100994.97;5070866;28;20254;-65
2022/12/02 10:27:05;;;;;;;18.25;9.38;;;5.40;99.90;;;5.50;92.71;100999.22;5051313;28;20641;-65
2022/12/02 10:29:32;;;;;;;14.82;7.18;;;5.40;99.90;;;5.33;93.23;100996.53;5050849;28;20228;-65
2022/12/02 10:32:08;;;;;;;21.50;8.93;;;5.30;99.90;;;5.40;92.81;100990.19;5051931;28;20201;-64
2022/12/02 10:34:35;;;;;;;16.48;9.15;;;5.30;99.90;;;5.04;94.08;100979.75;5048939;28;20205;-65